sensor_id;sensor_type;location;lat;lon;timestamp;pressure;altitude;pressure_sealevel;temperature;humidity
26697;BME280;14312;52.614;13.496;2023-04-07T00:00:28;101353.03;;;6.11;44.19
26697;BME280;14312;52.614;13.496;2023-04-07T00:03:14;101347.09;;;6.09;43.95
26697;BME280;14312;52.614;13.496;2023-04-07T00:06:01;101338.72;;;6.05;43.83
26697;BME280;14312;52.614;13.496;2023-04-07T00:08:47;101350.53;;;6.03;43.96
26697;BME280;14312;52.614;13.496;2023-04-07T00:11:32;101341.97;;;6.01;44.16
26697;BME280;14312;52.614;13.496;2023-04-07T00:14:19;101344.97;;;5.98;43.99
26697;BME280;14312;52.614;13.496;2023-04-07T00:17:04;101341.72;;;5.96;44.10
26697;BME280;14312;52.614;13.496;2023-04-07T00:19:50;101336.81;;;5.93;43.95
26697;BME280;14312;52.614;13.496;2023-04-07T00:22:36;101337.44;;;5.95;44.16
26697;BME280;14312;52.614;13.496;2023-04-07T00:25:22;101336.63;;;5.94;44.11
26697;BME280;14312;52.614;13.496;2023-04-07T00:28:08;101334.78;;;5.95;44.24
26697;BME280;14312;52.614;13.496;2023-04-07T00:30:54;101338.06;;;5.97;44.16
26697;BME280;14312;52.614;13.496;2023-04-07T00:33:40;101331.75;;;5.98;44.31
26697;BME280;14312;52.614;13.496;2023-04-07T00:36:26;101337.84;;;5.98;44.18
26697;BME280;14312;52.614;13.496;2023-04-07T00:39:13;101335.03;;;6.00;44.17
26697;BME280;14312;52.614;13.496;2023-04-07T00:41:59;101335.84;;;6.00;44.45
26697;BME280;14312;52.614;13.496;2023-04-07T00:44:46;101329.91;;;5.98;43.97
26697;BME280;14312;52.614;13.496;2023-04-07T00:47:31;101331.75;;;5.98;44.17
26697;BME280;14312;52.614;13.496;2023-04-07T00:50:18;101332.56;;;5.98;44.18
26697;BME280;14312;52.614;13.496;2023-04-07T00:53:04;101326.84;;;5.95;44.34
26697;BME280;14312;52.614;13.496;2023-04-07T00:55:50;101325.41;;;5.92;44.57
26697;BME280;14312;52.614;13.496;2023-04-07T00:58:36;101314.41;;;5.88;44.35
26697;BME280;14312;52.614;13.496;2023-04-07T01:01:26;101326.00;;;5.87;44.50
26697;BME280;14312;52.614;13.496;2023-04-07T01:07:26;101314.88;;;5.77;44.40
26697;BME280;14312;52.614;13.496;2023-04-07T01:10:20;101312.38;;;5.69;44.34
26697;BME280;14312;52.614;13.496;2023-04-07T01:16:04;101301.63;;;5.49;44.28
26697;BME280;14312;52.614;13.496;2023-04-07T01:18:56;101301.97;;;5.40;44.25
26697;BME280;14312;52.614;13.496;2023-04-07T01:21:45;101304.75;;;5.32;44.37
26697;BME280;14312;52.614;13.496;2023-04-07T01:30:35;101293.53;;;5.08;44.65
26697;BME280;14312;52.614;13.496;2023-04-07T01:33:23;101301.19;;;5.03;45.04
26697;BME280;14312;52.614;13.496;2023-04-07T01:36:11;101293.41;;;4.95;45.09
26697;BME280;14312;52.614;13.496;2023-04-07T01:38:57;101307.59;;;4.94;44.98
26697;BME280;14312;52.614;13.496;2023-04-07T01:41:44;101302.06;;;4.89;45.15
26697;BME280;14312;52.614;13.496;2023-04-07T01:44:31;101294.50;;;4.86;45.19
26697;BME280;14312;52.614;13.496;2023-04-07T01:47:18;101295.88;;;4.82;45.11
26697;BME280;14312;52.614;13.496;2023-04-07T01:50:04;101299.53;;;4.81;45.49
26697;BME280;14312;52.614;13.496;2023-04-07T01:52:54;101301.34;;;4.81;45.35
26697;BME280;14312;52.614;13.496;2023-04-07T01:55:44;101297.06;;;4.80;45.64
26697;BME280;14312;52.614;13.496;2023-04-07T01:58:30;101299.72;;;4.80;45.44
26697;BME280;14312;52.614;13.496;2023-04-07T02:01:16;101285.50;;;4.81;45.62
26697;BME280;14312;52.614;13.496;2023-04-07T02:07:08;101287.97;;;4.82;45.79
26697;BME280;14312;52.614;13.496;2023-04-07T02:09:58;101290.41;;;4.84;45.64
26697;BME280;14312;52.614;13.496;2023-04-07T02:12:46;101281.47;;;4.85;45.55
26697;BME280;14312;52.614;13.496;2023-04-07T02:15:33;101284.13;;;4.85;45.58
26697;BME280;14312;52.614;13.496;2023-04-07T02:18:19;101271.75;;;4.85;45.41
26697;BME280;14312;52.614;13.496;2023-04-07T02:21:06;101275.84;;;4.88;45.60
26697;BME280;14312;52.614;13.496;2023-04-07T02:23:53;101277.66;;;4.87;45.47
26697;BME280;14312;52.614;13.496;2023-04-07T02:26:41;101276.84;;;4.87;45.63
26697;BME280;14312;52.614;13.496;2023-04-07T02:29:27;101265.47;;;4.86;45.50
26697;BME280;14312;52.614;13.496;2023-04-07T02:32:13;101269.91;;;4.86;45.59
26697;BME280;14312;52.614;13.496;2023-04-07T02:34:59;101282.31;;;4.85;45.70
26697;BME280;14312;52.614;13.496;2023-04-07T02:37:46;101269.09;;;4.85;45.81
26697;BME280;14312;52.614;13.496;2023-04-07T02:40:32;101268.09;;;4.86;45.96
26697;BME280;14312;52.614;13.496;2023-04-07T02:43:19;101267.75;;;4.89;45.99
26697;BME280;14312;52.614;13.496;2023-04-07T02:46:05;101268.34;;;4.91;45.93
26697;BME280;14312;52.614;13.496;2023-04-07T02:48:51;101273.09;;;4.96;45.79
26697;BME280;14312;52.614;13.496;2023-04-07T02:51:37;101266.59;;;4.98;45.95
26697;BME280;14312;52.614;13.496;2023-04-07T02:54:23;101262.94;;;4.99;45.93
26697;BME280;14312;52.614;13.496;2023-04-07T02:57:09;101265.06;;;5.04;46.05
26697;BME280;14312;52.614;13.496;2023-04-07T02:59:55;101275.22;;;5.07;45.97
26697;BME280;14312;52.614;13.496;2023-04-07T03:02:42;101268.75;;;5.09;46.01
26697;BME280;14312;52.614;13.496;2023-04-07T03:05:28;101272.00;;;5.11;46.05
26697;BME280;14312;52.614;13.496;2023-04-07T03:08:14;101270.00;;;5.13;45.85
26697;BME280;14312;52.614;13.496;2023-04-07T03:11:00;101268.81;;;5.16;45.99
26697;BME280;14312;52.614;13.496;2023-04-07T03:13:46;101266.00;;;5.18;46.00
26697;BME280;14312;52.614;13.496;2023-04-07T03:16:32;101261.31;;;5.20;45.94
26697;BME280;14312;52.614;13.496;2023-04-07T03:19:20;101256.66;;;5.22;46.05
26697;BME280;14312;52.614;13.496;2023-04-07T03:22:06;101253.66;;;5.25;46.03
26697;BME280;14312;52.614;13.496;2023-04-07T03:24:52;101255.31;;;5.26;46.23
26697;BME280;14312;52.614;13.496;2023-04-07T03:27:38;101254.09;;;5.28;46.12
26697;BME280;14312;52.614;13.496;2023-04-07T03:30:24;101249.44;;;5.30;46.13
26697;BME280;14312;52.614;13.496;2023-04-07T03:33:10;101251.91;;;5.32;46.06
26697;BME280;14312;52.614;13.496;2023-04-07T03:35:57;101256.78;;;5.35;46.11
26697;BME280;14312;52.614;13.496;2023-04-07T03:38:43;101246.22;;;5.35;46.24
26697;BME280;14312;52.614;13.496;2023-04-07T03:41:29;101251.13;;;5.38;46.12
26697;BME280;14312;52.614;13.496;2023-04-07T03:44:15;101248.31;;;5.39;45.93
26697;BME280;14312;52.614;13.496;2023-04-07T03:47:01;101249.13;;;5.40;46.15
26697;BME280;14312;52.614;13.496;2023-04-07T03:49:47;101249.13;;;5.40;45.99
26697;BME280;14312;52.614;13.496;2023-04-07T03:52:33;101238.56;;;5.40;46.09
26697;BME280;14312;52.614;13.496;2023-04-07T03:55:19;101249.13;;;5.40;45.84
26697;BME280;14312;52.614;13.496;2023-04-07T03:58:05;101247.50;;;5.39;45.96
26697;BME280;14312;52.614;13.496;2023-04-07T04:00:51;101251.13;;;5.38;46.09
26697;BME280;14312;52.614;13.496;2023-04-07T04:03:37;101248.50;;;5.38;46.04
26697;BME280;14312;52.614;13.496;2023-04-07T04:06:23;101242.19;;;5.39;46.36
26697;BME280;14312;52.614;13.496;2023-04-07T04:09:09;101252.78;;;5.39;46.17
26697;BME280;14312;52.614;13.496;2023-04-07T04:11:55;101245.44;;;5.41;46.31
26697;BME280;14312;52.614;13.496;2023-04-07T04:14:41;101247.09;;;5.42;46.35
26697;BME280;14312;52.614;13.496;2023-04-07T04:17:27;101250.38;;;5.44;46.38
26697;BME280;14312;52.614;13.496;2023-04-07T04:20:13;101250.00;;;5.47;46.37
26697;BME280;14312;52.614;13.496;2023-04-07T04:22:59;101247.97;;;5.49;46.32
26697;BME280;14312;52.614;13.496;2023-04-07T04:25:45;101253.88;;;5.51;46.16
26697;BME280;14312;52.614;13.496;2023-04-07T04:28:31;101247.59;;;5.52;46.47
26697;BME280;14312;52.614;13.496;2023-04-07T04:31:17;101251.88;;;5.53;46.45
26697;BME280;14312;52.614;13.496;2023-04-07T04:34:03;101248.00;;;5.56;46.30
26697;BME280;14312;52.614;13.496;2023-04-07T04:36:49;101256.56;;;5.58;46.43
26697;BME280;14312;52.614;13.496;2023-04-07T04:39:35;101246.00;;;5.58;46.34
26697;BME280;14312;52.614;13.496;2023-04-07T04:42:21;101244.00;;;5.60;46.59
26697;BME280;14312;52.614;13.496;2023-04-07T04:45:07;101245.63;;;5.61;46.58
26697;BME280;14312;52.614;13.496;2023-04-07T04:47:53;101251.75;;;5.61;46.62
26697;BME280;14312;52.614;13.496;2023-04-07T04:50:41;101251.75;;;5.61;46.53
26697;BME280;14312;52.614;13.496;2023-04-07T04:53:27;101247.06;;;5.63;46.63
26697;BME280;14312;52.614;13.496;2023-04-07T04:56:13;101249.69;;;5.63;46.70
26697;BME280;14312;52.614;13.496;2023-04-07T04:59:00;101259.06;;;5.66;46.62
26697;BME280;14312;52.614;13.496;2023-04-07T05:01:46;101256.25;;;5.67;46.58
26697;BME280;14312;52.614;13.496;2023-04-07T05:04:32;101259.50;;;5.69;46.71
26697;BME280;14312;52.614;13.496;2023-04-07T05:07:18;101264.41;;;5.72;46.64
26697;BME280;14312;52.614;13.496;2023-04-07T05:10:05;101267.69;;;5.74;46.77
26697;BME280;14312;52.614;13.496;2023-04-07T05:12:51;101262.00;;;5.77;46.79
26697;BME280;14312;52.614;13.496;2023-04-07T05:15:39;101263.28;;;5.81;46.62
26697;BME280;14312;52.614;13.496;2023-04-07T05:18:25;101265.50;;;5.84;46.96
26697;BME280;14312;52.614;13.496;2023-04-07T05:21:11;101256.81;;;5.90;47.07
26697;BME280;14312;52.614;13.496;2023-04-07T05:23:57;101260.97;;;6.00;47.03
26697;BME280;14312;52.614;13.496;2023-04-07T05:26:43;101256.53;;;6.07;47.14
26697;BME280;14312;52.614;13.496;2023-04-07T05:29:29;101258.00;;;6.16;47.28
26697;BME280;14312;52.614;13.496;2023-04-07T05:32:17;101262.75;;;6.27;47.06
26697;BME280;14312;52.614;13.496;2023-04-07T05:35:03;101265.22;;;6.35;47.18
26697;BME280;14312;52.614;13.496;2023-04-07T05:37:50;101262.03;;;6.46;47.04
26697;BME280;14312;52.614;13.496;2023-04-07T05:40:36;101269.41;;;6.57;46.97
26697;BME280;14312;52.614;13.496;2023-04-07T05:43:22;101269.22;;;6.65;46.85
26697;BME280;14312;52.614;13.496;2023-04-07T05:46:08;101267.41;;;6.73;46.84
26697;BME280;14312;52.614;13.496;2023-04-07T05:48:54;101260.31;;;6.80;46.83
26697;BME280;14312;52.614;13.496;2023-04-07T05:51:40;101258.88;;;6.84;46.66
26697;BME280;14312;52.614;13.496;2023-04-07T05:54:26;101258.09;;;6.90;46.72
26697;BME280;14312;52.614;13.496;2023-04-07T05:57:12;101255.66;;;6.95;46.46
26697;BME280;14312;52.614;13.496;2023-04-07T05:59:58;101256.88;;;6.99;46.79
26697;BME280;14312;52.614;13.496;2023-04-07T06:02:44;101257.50;;;7.01;46.59
26697;BME280;14312;52.614;13.496;2023-04-07T06:05:30;101265.84;;;7.04;46.62
26697;BME280;14312;52.614;13.496;2023-04-07T06:08:16;101259.34;;;7.07;46.53
26697;BME280;14312;52.614;13.496;2023-04-07T06:11:02;101264.84;;;7.12;46.97
26697;BME280;14312;52.614;13.496;2023-04-07T06:13:48;101258.16;;;7.16;46.74
26697;BME280;14312;52.614;13.496;2023-04-07T06:16:34;101261.63;;;7.23;46.64
26697;BME280;14312;52.614;13.496;2023-04-07T06:19:20;101262.84;;;7.27;46.75
26697;BME280;14312;52.614;13.496;2023-04-07T06:22:06;101265.91;;;7.31;46.93
26697;BME280;14312;52.614;13.496;2023-04-07T06:24:52;101272.25;;;7.36;46.77
26697;BME280;14312;52.614;13.496;2023-04-07T06:27:38;101276.09;;;7.40;46.62
26697;BME280;14312;52.614;13.496;2023-04-07T06:30:24;101272.63;;;7.46;46.89
26697;BME280;14312;52.614;13.496;2023-04-07T06:33:10;101280.59;;;7.53;46.82
26697;BME280;14312;52.614;13.496;2023-04-07T06:35:56;101278.97;;;7.59;46.81
26697;BME280;14312;52.614;13.496;2023-04-07T06:38:42;101279.78;;;7.66;47.03
26697;BME280;14312;52.614;13.496;2023-04-07T06:41:28;101284.28;;;7.72;46.59
26697;BME280;14312;52.614;13.496;2023-04-07T06:44:14;101281.81;;;7.77;46.50
26697;BME280;14312;52.614;13.496;2023-04-07T06:47:00;101286.72;;;7.80;46.33
26697;BME280;14312;52.614;13.496;2023-04-07T06:49:46;101288.34;;;7.81;46.45
26697;BME280;14312;52.614;13.496;2023-04-07T06:52:32;101286.28;;;7.83;46.37
26697;BME280;14312;52.614;13.496;2023-04-07T06:55:18;101289.56;;;7.85;46.18
26697;BME280;14312;52.614;13.496;2023-04-07T06:58:04;101289.16;;;7.88;46.19
26697;BME280;14312;52.614;13.496;2023-04-07T07:00:50;101286.09;;;7.91;46.33
26697;BME280;14312;52.614;13.496;2023-04-07T07:03:36;101287.72;;;7.92;46.03
26697;BME280;14312;52.614;13.496;2023-04-07T07:06:21;101283.03;;;7.94;46.03
26697;BME280;14312;52.614;13.496;2023-04-07T07:09:07;101292.81;;;8.00;46.19
26697;BME280;14312;52.614;13.496;2023-04-07T07:11:53;101290.34;;;8.05;46.06
26697;BME280;14312;52.614;13.496;2023-04-07T07:14:40;101295.66;;;8.12;46.21
26697;BME280;14312;52.614;13.496;2023-04-07T07:17:26;101291.97;;;8.19;46.35
26697;BME280;14312;52.614;13.496;2023-04-07T07:20:12;101291.75;;;8.27;46.19
26697;BME280;14312;52.614;13.496;2023-04-07T07:22:58;101299.72;;;8.34;45.86
26697;BME280;14312;52.614;13.496;2023-04-07T07:25:44;101297.03;;;8.41;46.16
26697;BME280;14312;52.614;13.496;2023-04-07T07:28:30;101302.13;;;8.49;45.88
26697;BME280;14312;52.614;13.496;2023-04-07T07:31:16;101294.94;;;8.56;45.76
26697;BME280;14312;52.614;13.496;2023-04-07T07:34:02;101297.78;;;8.61;45.42
26697;BME280;14312;52.614;13.496;2023-04-07T07:36:48;101305.72;;;8.68;45.98
26697;BME280;14312;52.614;13.496;2023-04-07T07:39:34;101307.31;;;8.75;45.73
26697;BME280;14312;52.614;13.496;2023-04-07T07:42:21;101300.75;;;8.84;45.56
26697;BME280;14312;52.614;13.496;2023-04-07T07:45:13;101302.72;;;8.95;45.28
26697;BME280;14312;52.614;13.496;2023-04-07T07:47:59;101305.59;;;9.00;45.10
26697;BME280;14312;52.614;13.496;2023-04-07T07:50:45;101310.03;;;9.07;44.79
26697;BME280;14312;52.614;13.496;2023-04-07T07:53:32;101312.88;;;9.12;44.76
26697;BME280;14312;52.614;13.496;2023-04-07T07:56:18;101305.06;;;9.17;44.77
26697;BME280;14312;52.614;13.496;2023-04-07T07:59:05;101310.56;;;9.22;44.61
26697;BME280;14312;52.614;13.496;2023-04-07T08:01:51;101302.97;;;9.25;44.62
26697;BME280;14312;52.614;13.496;2023-04-07T08:04:37;101305.00;;;9.30;44.41
26697;BME280;14312;52.614;13.496;2023-04-07T08:07:23;101318.88;;;9.32;44.25
26697;BME280;14312;52.614;13.496;2023-04-07T08:10:09;101313.13;;;9.35;44.52
26697;BME280;14312;52.614;13.496;2023-04-07T08:12:55;101320.09;;;9.36;44.51
26697;BME280;14312;52.614;13.496;2023-04-07T08:15:41;101315.34;;;9.38;44.52
26697;BME280;14312;52.614;13.496;2023-04-07T08:18:27;101321.28;;;9.40;44.21
26697;BME280;14312;52.614;13.496;2023-04-07T08:21:13;101320.03;;;9.42;44.59
26697;BME280;14312;52.614;13.496;2023-04-07T08:24:00;101311.84;;;9.44;44.26
26697;BME280;14312;52.614;13.496;2023-04-07T08:26:46;101318.38;;;9.48;44.42
26697;BME280;14312;52.614;13.496;2023-04-07T08:29:32;101333.09;;;9.51;44.24
26697;BME280;14312;52.614;13.496;2023-04-07T08:32:18;101314.22;;;9.52;43.86
26697;BME280;14312;52.614;13.496;2023-04-07T08:35:04;101321.78;;;9.55;44.20
26697;BME280;14312;52.614;13.496;2023-04-07T08:37:50;101322.41;;;9.57;43.87
26697;BME280;14312;52.614;13.496;2023-04-07T08:40:36;101316.06;;;9.58;43.91
26697;BME280;14312;52.614;13.496;2023-04-07T08:43:23;101314.56;;;9.62;43.81
26697;BME280;14312;52.614;13.496;2023-04-07T08:46:09;101324.81;;;9.65;43.55
26697;BME280;14312;52.614;13.496;2023-04-07T08:48:56;101314.16;;;9.65;43.44
26697;BME280;14312;52.614;13.496;2023-04-07T08:51:45;101327.47;;;9.65;43.09
26697;BME280;14312;52.614;13.496;2023-04-07T08:54:33;101329.50;;;9.63;43.37
26697;BME280;14312;52.614;13.496;2023-04-07T08:57:19;101328.09;;;9.61;43.34
26697;BME280;14312;52.614;13.496;2023-04-07T09:00:06;101338.16;;;9.59;43.24
26697;BME280;14312;52.614;13.496;2023-04-07T09:02:52;101335.09;;;9.55;43.03
26697;BME280;14312;52.614;13.496;2023-04-07T09:05:38;101330.66;;;9.49;43.11
26697;BME280;14312;52.614;13.496;2023-04-07T09:08:24;101334.31;;;9.48;43.17
26697;BME280;14312;52.614;13.496;2023-04-07T09:11:10;101331.06;;;9.46;43.26
26697;BME280;14312;52.614;13.496;2023-04-07T09:13:56;101343.78;;;9.44;43.52
26697;BME280;14312;52.614;13.496;2023-04-07T09:16:43;101338.88;;;9.41;43.62
26697;BME280;14312;52.614;13.496;2023-04-07T09:19:30;101334.59;;;9.40;43.27
26697;BME280;14312;52.614;13.496;2023-04-07T09:22:41;101338.25;;;9.39;43.24
26697;BME280;14312;52.614;13.496;2023-04-07T09:25:27;101325.41;;;9.36;43.32
26697;BME280;14312;52.614;13.496;2023-04-07T09:28:14;101348.31;;;9.37;43.40
26697;BME280;14312;52.614;13.496;2023-04-07T09:31:00;101348.31;;;9.37;43.52
26697;BME280;14312;52.614;13.496;2023-04-07T09:33:48;101349.50;;;9.41;43.85
26697;BME280;14312;52.614;13.496;2023-04-07T09:36:40;101339.03;;;9.46;43.83
26697;BME280;14312;52.614;13.496;2023-04-07T09:39:27;101335.50;;;9.52;43.89
26697;BME280;14312;52.614;13.496;2023-04-07T09:42:13;101339.53;;;9.61;43.88
26697;BME280;14312;52.614;13.496;2023-04-07T09:45:00;101348.09;;;9.70;43.87
26697;BME280;14312;52.614;13.496;2023-04-07T09:47:46;101339.03;;;9.77;43.79
26697;BME280;14312;52.614;13.496;2023-04-07T09:50:34;101335.50;;;9.83;43.75
26697;BME280;14312;52.614;13.496;2023-04-07T09:53:20;101343.06;;;9.87;43.74
26697;BME280;14312;52.614;13.496;2023-04-07T09:56:09;101337.72;;;9.87;43.42
26697;BME280;14312;52.614;13.496;2023-04-07T09:58:56;101340.59;;;9.85;43.48
26697;BME280;14312;52.614;13.496;2023-04-07T10:01:42;101339.19;;;9.82;43.52
26697;BME280;14312;52.614;13.496;2023-04-07T10:04:29;101349.22;;;9.80;43.48
26697;BME280;14312;52.614;13.496;2023-04-07T10:07:15;101345.16;;;9.78;43.51
26697;BME280;14312;52.614;13.496;2023-04-07T10:10:02;101343.13;;;9.73;43.65
26697;BME280;14312;52.614;13.496;2023-04-07T10:12:51;101343.59;;;9.70;43.83
26697;BME280;14312;52.614;13.496;2023-04-07T10:15:38;101362.06;;;9.65;43.84
26697;BME280;14312;52.614;13.496;2023-04-07T10:18:28;101361.44;;;9.63;44.32
26697;BME280;14312;52.614;13.496;2023-04-07T10:21:17;101359.19;;;9.60;44.65
26697;BME280;14312;52.614;13.496;2023-04-07T10:27:17;101367.03;;;9.55;44.93
26697;BME280;14312;52.614;13.496;2023-04-07T10:30:11;101355.19;;;9.51;45.37
26697;BME280;14312;52.614;13.496;2023-04-07T10:32:58;101359.28;;;9.47;45.02
26697;BME280;14312;52.614;13.496;2023-04-07T10:36:04;101356.03;;;9.45;45.73
26697;BME280;14312;52.614;13.496;2023-04-07T10:41:52;101354.06;;;9.34;45.58
26697;BME280;14312;52.614;13.496;2023-04-07T10:47:24;101356.97;;;9.26;46.17
26697;BME280;14312;52.614;13.496;2023-04-07T10:50:20;101347.81;;;9.22;48.07
26697;BME280;14312;52.614;13.496;2023-04-07T10:53:14;101359.47;;;9.21;47.49
26697;BME280;14312;52.614;13.496;2023-04-07T10:56:00;101345.13;;;9.22;46.90
26697;BME280;14312;52.614;13.496;2023-04-07T10:59:15;101347.59;;;9.23;48.83
26697;BME280;14312;52.614;13.496;2023-04-07T11:04:59;101351.66;;;9.26;47.64
26697;BME280;14312;52.614;13.496;2023-04-07T11:07:52;101348.56;;;9.29;48.28
26697;BME280;14312;52.614;13.496;2023-04-07T11:10:46;101354.47;;;9.31;48.56
26697;BME280;14312;52.614;13.496;2023-04-07T11:13:39;101343.84;;;9.31;48.82
26697;BME280;14312;52.614;13.496;2023-04-07T11:16:34;101340.16;;;9.32;49.17
26697;BME280;14312;52.614;13.496;2023-04-07T11:19:21;101344.25;;;9.34;48.29
26697;BME280;14312;52.614;13.496;2023-04-07T11:22:14;101338.72;;;9.36;49.42
26697;BME280;14312;52.614;13.496;2023-04-07T11:25:01;101348.31;;;9.37;48.64
26697;BME280;14312;52.614;13.496;2023-04-07T11:27:47;101340.94;;;9.39;48.75
26697;BME280;14312;52.614;13.496;2023-04-07T11:30:34;101335.19;;;9.42;48.71
26697;BME280;14312;52.614;13.496;2023-04-07T11:33:29;101324.56;;;9.42;49.20
26697;BME280;14312;52.614;13.496;2023-04-07T11:36:25;101336.63;;;9.38;49.59
26697;BME280;14312;52.614;13.496;2023-04-07T11:39:19;101339.75;;;9.35;49.73
26697;BME280;14312;52.614;13.496;2023-04-07T11:42:08;101341.78;;;9.33;48.94
26697;BME280;14312;52.614;13.496;2023-04-07T11:44:54;101340.16;;;9.32;49.42
26697;BME280;14312;52.614;13.496;2023-04-07T11:47:40;101344.25;;;9.34;49.24
26697;BME280;14312;52.614;13.496;2023-04-07T11:50:40;101343.00;;;9.37;51.03
26697;BME280;14312;52.614;13.496;2023-04-07T11:53:32;101336.06;;;9.36;50.05
26697;BME280;14312;52.614;13.496;2023-04-07T11:56:18;101332.38;;;9.37;49.54
26697;BME280;14312;52.614;13.496;2023-04-07T11:59:04;101331.31;;;9.38;49.94
26697;BME280;14312;52.614;13.496;2023-04-07T12:01:51;101336.22;;;9.41;49.89
26697;BME280;14312;52.614;13.496;2023-04-07T12:04:37;101329.88;;;9.42;49.79
26697;BME280;14312;52.614;13.496;2023-04-07T12:07:25;101336.81;;;9.43;49.75
26697;BME280;14312;52.614;13.496;2023-04-07T12:10:22;101325.38;;;9.42;51.04
26697;BME280;14312;52.614;13.496;2023-04-07T12:13:08;101328.03;;;9.42;50.14
26697;BME280;14312;52.614;13.496;2023-04-07T12:15:54;101329.44;;;9.45;49.97
26697;BME280;14312;52.614;13.496;2023-04-07T12:18:40;101328.41;;;9.46;50.19
26697;BME280;14312;52.614;13.496;2023-04-07T12:21:26;101326.34;;;9.48;50.37
26697;BME280;14312;52.614;13.496;2023-04-07T12:24:12;101329.81;;;9.49;50.26
26697;BME280;14312;52.614;13.496;2023-04-07T12:26:59;101323.31;;;9.45;50.27
26697;BME280;14312;52.614;13.496;2023-04-07T12:29:44;101324.72;;;9.47;50.31
26697;BME280;14312;52.614;13.496;2023-04-07T12:32:30;101329.00;;;9.48;50.68
26697;BME280;14312;52.614;13.496;2023-04-07T12:35:17;101325.31;;;9.49;50.62
26697;BME280;14312;52.614;13.496;2023-04-07T12:38:03;101329.41;;;9.52;51.07
26697;BME280;14312;52.614;13.496;2023-04-07T12:40:50;101328.13;;;9.54;50.51
26697;BME280;14312;52.614;13.496;2023-04-07T12:43:36;101326.09;;;9.56;50.68
26697;BME280;14312;52.614;13.496;2023-04-07T12:46:22;101324.03;;;9.58;50.70
26697;BME280;14312;52.614;13.496;2023-04-07T12:49:08;101324.03;;;9.58;50.82
26697;BME280;14312;52.614;13.496;2023-04-07T12:51:55;101320.31;;;9.59;51.19
26697;BME280;14312;52.614;13.496;2023-04-07T12:54:42;101325.44;;;9.61;51.07
26697;BME280;14312;52.614;13.496;2023-04-07T12:57:29;101310.88;;;9.63;51.05
26697;BME280;14312;52.614;13.496;2023-04-07T13:00:15;101316.22;;;9.63;50.82
26697;BME280;14312;52.614;13.496;2023-04-07T13:03:01;101323.59;;;9.61;51.05
26697;BME280;14312;52.614;13.496;2023-04-07T13:05:48;101311.91;;;9.62;50.98
26697;BME280;14312;52.614;13.496;2023-04-07T13:08:34;101314.56;;;9.62;51.32
26697;BME280;14312;52.614;13.496;2023-04-07T13:11:20;101309.47;;;9.61;51.41
26697;BME280;14312;52.614;13.496;2023-04-07T13:14:06;101310.88;;;9.63;51.25
26697;BME280;14312;52.614;13.496;2023-04-07T13:16:52;101315.75;;;9.66;51.38
26697;BME280;14312;52.614;13.496;2023-04-07T13:19:38;101316.56;;;9.67;51.07
26697;BME280;14312;52.614;13.496;2023-04-07T13:22:24;101310.44;;;9.66;51.21
26697;BME280;14312;52.614;13.496;2023-04-07T13:25:10;101311.25;;;9.67;51.27
26697;BME280;14312;52.614;13.496;2023-04-07T13:27:56;101310.44;;;9.66;51.50
26697;BME280;14312;52.614;13.496;2023-04-07T13:30:44;101317.84;;;9.64;51.57
26697;BME280;14312;52.614;13.496;2023-04-07T13:33:30;101310.88;;;9.63;51.21
26697;BME280;14312;52.614;13.496;2023-04-07T13:36:16;101324.63;;;9.60;51.64
26697;BME280;14312;52.614;13.496;2023-04-07T13:39:05;101320.31;;;9.59;52.01
26697;BME280;14312;52.614;13.496;2023-04-07T13:41:51;101308.66;;;9.60;51.42
26697;BME280;14312;52.614;13.496;2023-04-07T13:44:37;101318.72;;;9.58;51.66
26697;BME280;14312;52.614;13.496;2023-04-07T13:47:24;101317.91;;;9.58;52.09
26697;BME280;14312;52.614;13.496;2023-04-07T13:50:11;101316.25;;;9.57;51.81
26697;BME280;14312;52.614;13.496;2023-04-07T13:52:57;101313.38;;;9.58;52.20
26697;BME280;14312;52.614;13.496;2023-04-07T13:55:42;101315.81;;;9.60;52.08
26697;BME280;14312;52.614;13.496;2023-04-07T13:58:28;101311.31;;;9.60;52.36
26697;BME280;14312;52.614;13.496;2023-04-07T14:01:14;101309.03;;;9.64;52.09
26697;BME280;14312;52.614;13.496;2023-04-07T14:04:01;101297.59;;;9.63;52.11
26697;BME280;14312;52.614;13.496;2023-04-07T14:06:47;101307.19;;;9.64;52.06
26697;BME280;14312;52.614;13.496;2023-04-07T14:09:33;101306.19;;;9.65;52.64
26697;BME280;14312;52.614;13.496;2023-04-07T14:12:19;101304.31;;;9.66;52.45
26697;BME280;14312;52.614;13.496;2023-04-07T14:15:07;101303.06;;;9.68;52.38
26697;BME280;14312;52.614;13.496;2023-04-07T14:17:53;101294.66;;;9.71;52.77
26697;BME280;14312;52.614;13.496;2023-04-07T14:20:39;101298.50;;;9.75;52.94
26697;BME280;14312;52.614;13.496;2023-04-07T14:23:25;101298.66;;;9.80;52.93
26697;BME280;14312;52.614;13.496;2023-04-07T14:26:11;101292.91;;;9.83;52.90
26697;BME280;14312;52.614;13.496;2023-04-07T14:28:57;101295.72;;;9.89;52.71
26697;BME280;14312;52.614;13.496;2023-04-07T14:31:43;101287.31;;;9.92;52.51
26697;BME280;14312;52.614;13.496;2023-04-07T14:34:30;101288.13;;;9.92;52.54
26697;BME280;14312;52.614;13.496;2023-04-07T14:37:16;101292.16;;;9.95;52.73
26697;BME280;14312;52.614;13.496;2023-04-07T14:40:07;101301.56;;;9.97;52.86
26697;BME280;14312;52.614;13.496;2023-04-07T14:42:53;101295.00;;;10.00;52.71
26697;BME280;14312;52.614;13.496;2023-04-07T14:45:39;101292.94;;;10.02;52.65
26697;BME280;14312;52.614;13.496;2023-04-07T14:48:25;101284.72;;;10.03;52.98
26697;BME280;14312;52.614;13.496;2023-04-07T14:51:12;101288.00;;;10.05;52.62
26697;BME280;14312;52.614;13.496;2023-04-07T14:53:58;101288.00;;;10.05;52.79
26697;BME280;14312;52.614;13.496;2023-04-07T14:56:44;101294.56;;;10.03;52.60
26697;BME280;14312;52.614;13.496;2023-04-07T14:59:30;101299.31;;;10.01;52.69